Time;durP1;ratioP1;P1;durP2;ratioP2;P2;SDS_P1;SDS_P2;PMS_P1;PMS_P2;Temp;Humidity;BMP_temperature;BMP_pressure;BME280_temperature;BME280_humidity;BME280_pressure;Samples;Min_cycle;Max_cycle;Signal;HPM_P1;HPM_P2
2022/04/12 00:00:00;;;;;;;10.90;3.20;;;7.30;99.90;;;;;;5071053;28;20044;-81
2022/04/12 00:02:27;;;;;;;10.98;3.50;;;6.70;99.90;;;;;;5034061;28;20037;-81
2022/04/12 00:04:54;;;;;;;6.22;3.10;;;7.20;99.90;;;;;;5036651;28;20036;-81
2022/04/12 00:07:20;;;;;;;7.03;3.13;;;7.10;99.90;;;;;;5053758;28;20518;-81
2022/04/12 00:09:46;;;;;;;8.75;3.60;;;6.60;99.90;;;;;;5048064;28;20055;-81
2022/04/12 00:12:14;;;;;;;9.48;3.80;;;6.70;99.90;;;;;;5052298;28;20536;-82
2022/04/12 00:14:45;;;;;;;8.63;4.03;;;6.60;99.90;;;;;;5037171;28;20119;-81
2022/04/12 00:19:56;;;;;;;11.15;4.10;;;6.50;99.90;;;;;;5054549;28;20037;-80
2022/04/12 00:22:21;;;;;;;6.38;3.47;;;6.50;99.90;;;;;;5071923;28;20036;-81
2022/04/12 00:24:47;;;;;;;11.63;3.78;;;6.50;99.90;;;;;;5054153;28;20036;-81
2022/04/12 00:30:57;;;;;;;10.57;4.00;;;6.40;99.90;;;;;;5065197;28;20478;-80
2022/04/12 00:33:23;;;;;;;9.35;4.43;;;6.60;99.90;;;;;;5052219;28;20477;-80
2022/04/12 00:35:48;;;;;;;7.22;3.60;;;6.40;99.90;;;;;;5055560;28;20035;-81
2022/04/12 00:38:22;;;;;;;8.98;3.90;;;6.40;99.90;;;;;;5038496;28;20152;-81
2022/04/12 00:40:49;;;;;;;7.72;4.10;;;6.80;99.90;;;;;;5051295;28;20036;-80
2022/04/12 00:43:25;;;;;;;6.65;4.22;;;6.30;99.90;;;;;;5037505;28;20040;-81
2022/04/12 00:45:51;;;;;;;11.43;4.60;;;7.20;99.90;;;;;;5054607;28;20115;-81
2022/04/12 00:48:19;;;;;;;8.55;3.92;;;6.40;99.90;;;;;;5050843;28;20049;-81
2022/04/12 00:50:46;;;;;;;8.35;3.55;;;7.00;99.90;;;;;;5032107;28;20036;-81
2022/04/12 00:53:12;;;;;;;11.55;4.32;;;6.90;99.90;;;;;;5048046;28;20364;-81
2022/04/12 00:55:38;;;;;;;7.97;4.53;;;7.10;99.90;;;;;;5036319;28;20040;-81
2022/04/12 00:58:23;;;;;;;9.40;4.45;;;6.40;99.90;;;;;;5049922;28;20047;-80
2022/04/12 01:00:49;;;;;;;8.13;4.32;;;6.50;99.90;;;;;;5029504;28;20103;-81
2022/04/12 01:03:15;;;;;;;11.02;3.78;;;6.60;99.90;;;;;;5036333;28;20086;-81
2022/04/12 01:05:41;;;;;;;7.13;4.20;;;6.40;99.90;;;;;;5053641;28;20041;-81
2022/04/12 01:08:07;;;;;;;8.70;4.43;;;6.60;99.90;;;;;;5069525;28;20048;-81
2022/04/12 01:10:33;;;;;;;14.18;5.20;;;6.50;99.90;;;;;;5061233;28;20067;-81
2022/04/12 01:13:00;;;;;;;10.88;4.80;;;6.50;99.90;;;;;;5047239;28;20041;-81
2022/04/12 01:15:26;;;;;;;12.80;4.43;;;6.50;99.90;;;;;;5025489;28;20068;-81
2022/04/12 01:17:53;;;;;;;8.18;4.80;;;6.50;99.90;;;;;;5039635;28;20051;-81
2022/04/12 01:20:24;;;;;;;7.03;4.60;;;6.40;99.90;;;;;;5037843;28;20045;-81
2022/04/12 01:23:12;;;;;;;8.15;4.53;;;6.50;99.90;;;;;;5054074;28;20517;-81
2022/04/12 01:25:38;;;;;;;11.95;5.00;;;6.40;99.90;;;;;;5051854;28;20041;-81
2022/04/12 01:28:06;;;;;;;11.23;5.13;;;6.40;99.90;;;;;;5069120;28;20040;-81
2022/04/12 01:30:31;;;;;;;10.43;4.50;;;6.40;99.90;;;;;;5052583;28;20037;-81
2022/04/12 01:32:57;;;;;;;9.55;4.95;;;6.40;99.90;;;;;;5071001;28;20067;-81
2022/04/12 01:35:23;;;;;;;9.40;4.90;;;6.40;99.90;;;;;;5041964;28;20033;-80
2022/04/12 01:37:48;;;;;;;14.30;5.50;;;6.30;99.90;;;;;;5052823;28;20052;-81
2022/04/12 01:40:14;;;;;;;12.68;5.43;;;6.40;99.90;;;;;;5035562;28;20052;-81
2022/04/12 01:42:40;;;;;;;9.27;4.65;;;6.30;99.90;;;;;;5049461;28;20454;-81
2022/04/12 01:45:07;;;;;;;10.88;5.60;;;6.30;99.90;;;;;;5051081;28;20037;-81
2022/04/12 01:47:34;;;;;;;8.95;5.30;;;6.20;99.90;;;;;;5036548;28;20028;-82
2022/04/12 01:49:59;;;;;;;10.68;4.95;;;6.40;99.90;;;;;;5035125;28;20099;-82
2022/04/12 01:52:25;;;;;;;10.55;4.65;;;7.10;99.90;;;;;;5071269;28;20460;-81
2022/04/12 01:54:51;;;;;;;10.63;5.28;;;6.70;99.90;;;;;;5034619;28;20041;-81
2022/04/12 01:57:32;;;;;;;10.35;5.70;;;6.20;99.90;;;;;;5030046;28;20487;-81
2022/04/12 01:59:58;;;;;;;9.32;5.18;;;6.70;99.90;;;;;;5051576;28;20457;-80
2022/04/12 02:02:24;;;;;;;13.00;5.85;;;6.20;99.90;;;;;;5071107;28;20039;-81
2022/04/12 02:04:49;;;;;;;7.68;4.97;;;6.80;99.90;;;;;;5052163;28;20036;-81
2022/04/12 02:07:15;;;;;;;12.05;5.40;;;6.80;99.90;;;;;;5052688;28;20495;-81
2022/04/12 02:09:41;;;;;;;13.43;6.38;;;6.40;99.90;;;;;;5046919;28;20033;-81
2022/04/12 02:12:07;;;;;;;10.35;6.18;;;6.60;99.90;;;;;;5046921;28;20044;-81
2022/04/12 02:14:33;;;;;;;10.40;5.40;;;6.10;99.90;;;;;;5033919;28;20044;-81
2022/04/12 02:16:59;;;;;;;12.13;6.30;;;6.30;99.90;;;;;;5036020;28;20032;-81
2022/04/12 02:19:24;;;;;;;10.40;5.65;;;6.10;99.90;;;;;;5034672;28;20028;-80
2022/04/12 02:21:50;;;;;;;12.27;6.10;;;6.90;99.90;;;;;;5052487;28;20116;-81
2022/04/12 02:24:16;;;;;;;12.02;6.65;;;6.20;99.90;;;;;;5052763;28;20170;-81
2022/04/12 02:26:41;;;;;;;12.02;6.95;;;6.50;99.90;;;;;;5035208;28;20043;-81
2022/04/12 02:29:07;;;;;;;14.40;6.20;;;6.00;99.90;;;;;;5051596;28;20456;-82
2022/04/12 02:31:33;;;;;;;10.90;6.10;;;6.60;99.90;;;;;;5052002;28;20041;-81
2022/04/12 02:33:59;;;;;;;12.07;6.07;;;6.40;99.90;;;;;;5034507;28;20053;-81
2022/04/12 02:36:25;;;;;;;11.10;6.47;;;6.70;99.90;;;;;;5059989;28;20067;-81
2022/04/12 02:38:50;;;;;;;12.85;6.90;;;6.10;99.90;;;;;;5051865;28;20050;-81
2022/04/12 02:41:16;;;;;;;10.15;5.53;;;7.00;99.90;;;;;;5057035;28;20438;-81
2022/04/12 02:43:44;;;;;;;10.63;6.28;;;6.00;99.90;;;;;;5053743;28;20047;-81
2022/04/12 02:46:10;;;;;;;12.13;6.85;;;6.00;99.90;;;;;;5054955;28;20486;-81
2022/04/12 02:48:36;;;;;;;11.43;6.65;;;6.20;99.90;;;;;;5039470;28;20189;-81
2022/04/12 02:51:01;;;;;;;14.60;6.55;;;6.50;99.90;;;;;;5055808;28;20112;-80
2022/04/12 02:53:27;;;;;;;11.93;6.70;;;5.90;99.90;;;;;;5037619;28;20447;-81
2022/04/12 02:55:53;;;;;;;12.38;6.53;;;5.90;99.90;;;;;;5038266;28;20044;-80
2022/04/12 02:58:19;;;;;;;10.80;6.78;;;6.00;99.90;;;;;;5054693;28;20150;-80
2022/04/12 03:00:44;;;;;;;11.98;6.95;;;6.40;99.90;;;;;;5038567;28;20036;-82
2022/04/12 03:03:10;;;;;;;11.13;6.72;;;5.90;99.90;;;;;;5054971;28;20048;-81
2022/04/12 03:05:36;;;;;;;13.32;7.15;;;6.60;99.90;;;;;;5054791;28;20089;-81
2022/04/12 03:08:02;;;;;;;17.73;7.32;;;5.80;99.90;;;;;;5054884;28;20467;-82
2022/04/12 03:10:27;;;;;;;11.30;7.10;;;5.90;99.90;;;;;;5038850;28;20105;-81
2022/04/12 03:12:53;;;;;;;16.13;7.90;;;5.70;99.90;;;;;;5039168;28;20428;-82
2022/04/12 03:15:19;;;;;;;11.90;7.78;;;5.80;99.90;;;;;;5055682;28;20162;-82
2022/04/12 03:17:45;;;;;;;15.52;7.82;;;5.70;99.90;;;;;;5039896;28;20046;-82
2022/04/12 03:20:10;;;;;;;16.67;8.25;;;5.90;99.90;;;;;;5038107;28;20436;-82
2022/04/12 03:22:36;;;;;;;12.32;8.57;;;6.30;99.90;;;;;;5040355;28;20045;-82
2022/04/12 03:25:02;;;;;;;14.85;9.18;;;6.10;99.90;;;;;;5047257;28;20051;-82
2022/04/12 03:27:28;;;;;;;15.30;8.52;;;5.60;99.90;;;;;;5039605;28;20036;-81
2022/04/12 03:29:54;;;;;;;15.23;9.32;;;5.80;99.90;;;;;;5073239;28;20029;-81
2022/04/12 03:32:19;;;;;;;14.20;9.57;;;5.60;99.90;;;;;;5037728;28;20040;-80
2022/04/12 03:34:46;;;;;;;13.88;9.45;;;5.90;99.90;;;;;;5034024;28;20535;-82
2022/04/12 03:37:15;;;;;;;15.25;9.73;;;5.60;99.90;;;;;;5034608;28;20369;-81
2022/04/12 03:39:43;;;;;;;19.27;9.75;;;6.50;99.90;;;;;;5036405;28;20398;-82
2022/04/12 03:42:11;;;;;;;24.80;10.43;;;6.20;99.90;;;;;;5035993;28;20048;-81
2022/04/12 03:44:37;;;;;;;17.70;9.57;;;5.60;99.90;;;;;;5034209;28;20037;-82
2022/04/12 03:47:04;;;;;;;16.15;9.80;;;6.30;99.90;;;;;;5050867;28;20040;-81
2022/04/12 03:49:29;;;;;;;18.52;10.55;;;5.70;99.90;;;;;;5033241;28;20047;-81
2022/04/12 03:51:55;;;;;;;18.02;10.27;;;6.00;99.90;;;;;;5035665;28;20123;-82
2022/04/12 03:54:21;;;;;;;15.48;9.35;;;5.70;99.90;;;;;;5035438;28;20037;-81
2022/04/12 03:56:46;;;;;;;18.52;10.30;;;5.70;99.90;;;;;;5034720;28;20213;-82
2022/04/12 03:59:15;;;;;;;17.63;10.57;;;6.60;99.90;;;;;;5035376;28;20545;-81
2022/04/12 04:01:41;;;;;;;17.95;10.35;;;5.80;99.90;;;;;;5034907;28;20041;-81
2022/04/12 04:04:07;;;;;;;21.35;10.52;;;5.70;99.90;;;;;;5034158;28;20087;-83
2022/04/12 04:06:33;;;;;;;18.80;11.02;;;5.70;99.90;;;;;;5011909;28;20147;-81
2022/04/12 04:08:59;;;;;;;23.65;11.40;;;5.80;99.90;;;;;;5034338;28;20101;-81
2022/04/12 04:11:25;;;;;;;21.52;11.98;;;6.60;99.90;;;;;;5052171;28;20036;-81
2022/04/12 04:13:51;;;;;;;18.70;11.52;;;6.30;99.90;;;;;;5044161;28;20140;-82
2022/04/12 04:16:17;;;;;;;21.10;12.23;;;5.80;99.90;;;;;;5034408;28;20056;-81
2022/04/12 04:18:43;;;;;;;17.83;11.50;;;5.80;99.90;;;;;;5050777;28;20041;-81
2022/04/12 04:21:08;;;;;;;16.50;11.43;;;5.80;99.90;;;;;;5050563;28;20399;-81
2022/04/12 04:23:34;;;;;;;21.75;11.65;;;5.90;99.90;;;;;;5035172;28;20467;-81
2022/04/12 04:26:00;;;;;;;18.23;11.95;;;5.90;99.90;;;;;;5034030;28;20419;-80
2022/04/12 04:28:29;;;;;;;16.23;10.65;;;6.50;99.90;;;;;;5033391;28;20037;-81
2022/04/12 04:30:56;;;;;;;19.45;10.98;;;5.90;99.90;;;;;;5033864;28;20044;-81
2022/04/12 04:33:21;;;;;;;22.88;10.90;;;5.90;99.90;;;;;;5032904;28;20049;-81
2022/04/12 04:35:48;;;;;;;20.63;10.93;;;6.00;99.90;;;;;;5029374;28;20510;-81
2022/04/12 04:38:15;;;;;;;16.85;10.95;;;6.70;99.90;;;;;;5033414;28;20095;-81
2022/04/12 04:40:41;;;;;;;18.83;10.55;;;5.80;99.90;;;;;;5034536;28;20040;-82
2022/04/12 04:43:07;;;;;;;17.05;9.90;;;6.60;99.90;;;;;;5033581;28;20430;-82
2022/04/12 04:45:34;;;;;;;18.25;10.35;;;5.90;99.90;;;;;;5030241;28;20045;-80
2022/04/12 04:48:02;;;;;;;21.75;11.18;;;5.80;99.90;;;;;;5033959;28;20037;-81
2022/04/12 04:50:32;;;;;;;17.67;10.40;;;6.00;99.90;;;;;;5033238;28;20036;-82
2022/04/12 04:53:00;;;;;;;18.45;10.50;;;5.80;99.90;;;;;;5035528;28;20033;-81
2022/04/12 04:55:26;;;;;;;16.95;10.15;;;5.70;99.90;;;;;;5051747;28;20130;-83
2022/04/12 04:57:56;;;;;;;14.25;9.25;;;5.70;99.90;;;;;;5031986;28;20118;-80
2022/04/12 05:00:25;;;;;;;19.70;9.85;;;6.40;99.90;;;;;;5034928;28;20059;-79
2022/04/12 05:02:53;;;;;;;14.38;9.90;;;5.70;99.90;;;;;;5049832;28;20033;-81
2022/04/12 05:05:19;;;;;;;13.65;3.83;;;5.70;99.90;;;;;;5031372;28;20132;-80
2022/04/12 05:07:50;;;;;;;16.25;9.32;;;7.20;99.90;;;;;;5032481;28;20044;-82
2022/04/12 05:10:21;;;;;;;15.98;9.68;;;7.30;99.90;;;;;;5050351;28;20098;-81
2022/04/12 05:12:47;;;;;;;14.90;9.48;;;6.70;99.90;;;;;;5047192;28;20381;-83
2022/04/12 05:15:13;;;;;;;13.38;9.00;;;6.40;99.90;;;;;;5030826;28;20037;-83
2022/04/12 05:17:39;;;;;;;18.85;9.82;;;6.30;99.90;;;;;;5032854;28;20040;-82
2022/04/12 05:20:09;;;;;;;16.50;9.88;;;6.10;99.90;;;;;;5033634;28;20415;-83
2022/04/12 05:22:35;;;;;;;14.98;9.75;;;6.10;99.90;;;;;;5033854;28;20037;-82
2022/04/12 05:25:01;;;;;;;15.60;9.77;;;6.10;99.90;;;;;;5050179;28;20044;-82
2022/04/12 05:27:31;;;;;;;12.93;9.15;;;6.90;99.90;;;;;;5033657;28;20041;-81
2022/04/12 05:30:01;;;;;;;16.90;9.07;;;6.10;99.90;;;;;;5055206;28;20101;-81
2022/04/12 05:32:27;;;;;;;15.00;8.98;;;6.20;99.90;;;;;;5037959;28;20502;-81
2022/04/12 05:34:54;;;;;;;17.45;9.50;;;6.30;99.90;;;;;;5071306;28;20044;-84
2022/04/12 05:37:20;;;;;;;16.02;9.10;;;7.00;99.90;;;;;;5050606;28;20056;-83
2022/04/12 05:39:46;;;;;;;18.73;9.88;;;6.90;99.90;;;;;;5036381;28;20037;-86
2022/04/12 05:42:15;;;;;;;13.95;9.45;;;6.50;99.90;;;;;;5052636;28;20070;-85
2022/04/12 05:44:40;;;;;;;12.90;8.43;;;6.60;99.90;;;;;;5067698;28;20143;-83
2022/04/12 05:47:10;;;;;;;15.05;8.90;;;7.30;99.90;;;;;;5031331;28;20147;-84
2022/04/12 05:49:37;;;;;;;12.23;8.75;;;7.40;99.90;;;;;;5027410;28;20152;-84
2022/04/12 05:52:03;;;;;;;19.40;8.82;;;7.00;99.90;;;;;;5051082;28;20041;-83
2022/04/12 05:54:28;;;;;;;11.15;6.95;;;7.00;99.90;;;;;;5023411;28;20094;-84
2022/04/12 05:56:54;;;;;;;14.52;8.25;;;7.60;99.90;;;;;;5036619;28;20063;-84
2022/04/12 05:59:21;;;;;;;16.20;9.05;;;7.70;99.90;;;;;;5052612;28;20127;-83
2022/04/12 06:01:49;;;;;;;15.00;7.20;;;7.10;99.90;;;;;;5035559;28;20036;-83
2022/04/12 06:04:16;;;;;;;13.27;7.13;;;7.10;99.90;;;;;;5034995;28;20047;-81
2022/04/12 06:06:45;;;;;;;16.33;8.77;;;7.70;99.90;;;;;;5051612;28;20488;-84
2022/04/12 06:09:10;;;;;;;20.77;8.50;;;7.70;99.90;;;;;;5034623;28;20102;-82
2022/04/12 06:11:36;;;;;;;14.48;9.43;;;7.10;99.90;;;;;;5053923;28;20040;-83
2022/04/12 06:14:03;;;;;;;12.88;8.00;;;7.50;99.90;;;;;;5034796;28;20059;-82
2022/04/12 06:16:28;;;;;;;19.60;9.75;;;7.20;99.90;;;;;;5052714;28;20032;-81
2022/04/12 06:18:55;;;;;;;9.98;6.38;;;7.30;99.90;;;;;;5070291;28;20128;-83
2022/04/12 06:21:24;;;;;;;15.55;9.70;;;7.40;99.90;;;;;;5030930;28;20123;-87
2022/04/12 06:23:50;;;;;;;16.98;9.48;;;7.40;99.90;;;;;;5052048;28;20040;-83
2022/04/12 06:26:16;;;;;;;12.18;8.57;;;7.50;99.90;;;;;;5035800;28;20045;-84
2022/04/12 06:32:23;;;;;;;15.85;8.18;;;7.70;99.90;;;;;;5058286;28;20036;-82
2022/04/12 06:34:48;;;;;;;15.25;9.23;;;7.70;99.90;;;;;;5033647;28;20052;-82
2022/04/12 06:37:14;;;;;;;16.42;9.68;;;7.80;99.90;;;;;;5053744;28;20042;-83
2022/04/12 06:39:39;;;;;;;14.35;8.85;;;8.20;99.90;;;;;;5054358;28;20395;-84
2022/04/12 06:42:06;;;;;;;14.02;8.43;;;8.30;99.90;;;;;;5053679;28;20040;-80
2022/04/12 06:44:32;;;;;;;16.40;9.45;;;8.20;99.90;;;;;;5052546;28;20399;-80
2022/04/12 06:46:58;;;;;;;16.30;10.07;;;8.30;99.90;;;;;;5019888;28;20400;-80
2022/04/12 06:49:24;;;;;;;14.38;7.68;;;8.30;99.90;;;;;;5036079;28;20045;-82
2022/04/12 06:51:50;;;;;;;14.88;8.30;;;8.30;99.90;;;;;;5037940;28;20089;-81
2022/04/12 06:54:16;;;;;;;15.43;9.50;;;8.40;99.90;;;;;;5037610;28;20044;-81
2022/04/12 06:56:41;;;;;;;14.40;9.43;;;9.00;99.90;;;;;;5054644;28;20464;-81
2022/04/12 06:59:07;;;;;;;16.55;9.85;;;8.50;99.90;;;;;;5038733;28;20056;-82
2022/04/12 07:01:33;;;;;;;20.40;10.02;;;8.50;99.90;;;;;;5037489;28;20075;-82
2022/04/12 07:03:59;;;;;;;13.57;8.95;;;8.50;99.90;;;;;;5053332;28;20487;-82
2022/04/12 07:06:24;;;;;;;12.48;9.20;;;8.50;99.90;;;;;;5038727;28;20057;-81
2022/04/12 07:08:50;;;;;;;15.82;9.77;;;8.50;99.90;;;;;;5039895;28;20047;-81
2022/04/12 07:11:16;;;;;;;17.88;8.98;;;8.50;99.90;;;;;;5023046;28;20055;-81
2022/04/12 07:13:44;;;;;;;17.02;9.48;;;8.50;99.90;;;;;;5034367;28;20049;-81
2022/04/12 07:16:10;;;;;;;16.20;8.68;;;8.40;99.90;;;;;;5069192;28;20033;-81
2022/04/12 07:19:01;;;;;;;14.88;9.65;;;9.10;99.90;;;;;;5038154;28;20040;-83
2022/04/12 07:21:29;;;;;;;14.20;9.10;;;8.60;99.90;;;;;;5030147;28;20139;-81
2022/04/12 07:23:55;;;;;;;16.33;10.25;;;8.60;99.90;;;;;;5047824;28;20433;-81
2022/04/12 07:26:22;;;;;;;15.00;10.10;;;8.60;99.90;;;;;;5053088;28;20475;-83
2022/04/12 07:28:48;;;;;;;17.63;9.25;;;8.90;99.90;;;;;;5048235;28;20048;-81
2022/04/12 07:31:14;;;;;;;16.88;9.25;;;8.70;99.90;;;;;;5038848;28;20036;-82
2022/04/12 07:33:39;;;;;;;18.98;9.43;;;8.80;99.90;;;;;;5036029;28;20044;-81
2022/04/12 07:36:05;;;;;;;17.05;9.75;;;8.80;99.90;;;;;;5030224;28;20114;-82
2022/04/12 07:38:31;;;;;;;14.32;9.10;;;8.80;99.90;;;;;;5035896;28;20395;-81
2022/04/12 07:40:57;;;;;;;13.07;8.98;;;8.90;99.90;;;;;;5053059;28;20788;-82
2022/04/12 07:43:23;;;;;;;17.75;10.07;;;8.90;99.90;;;;;;5050013;28;20400;-78
2022/04/12 07:45:48;;;;;;;14.07;9.30;;;9.00;99.90;;;;;;5051389;28;20061;-80
2022/04/12 07:48:14;;;;;;;14.80;8.93;;;9.10;99.90;;;;;;5033638;28;20048;-80
2022/04/12 07:50:40;;;;;;;13.57;9.27;;;9.10;99.90;;;;;;5049439;28;20037;-82
2022/04/12 07:53:06;;;;;;;16.58;9.45;;;9.20;99.90;;;;;;5036455;28;20045;-82
2022/04/12 07:55:31;;;;;;;13.95;9.27;;;9.30;99.90;;;;;;5035250;28;20452;-82
2022/04/12 07:57:57;;;;;;;12.85;8.18;;;9.30;99.90;;;;;;5035400;28;20127;-82
2022/04/12 08:00:23;;;;;;;13.18;7.22;;;9.50;99.90;;;;;;5041715;28;20041;-83
2022/04/12 08:02:49;;;;;;;20.23;10.10;;;9.60;99.90;;;;;;5051745;28;20071;-82
2022/04/12 08:05:16;;;;;;;13.48;8.50;;;9.50;99.90;;;;;;5043966;28;20049;-81
2022/04/12 08:07:47;;;;;;;12.38;8.52;;;9.50;99.90;;;;;;5056522;28;20366;-81
2022/04/12 08:10:22;;;;;;;17.05;8.90;;;9.70;99.90;;;;;;5060803;28;20033;-83
2022/04/12 08:12:48;;;;;;;14.23;7.80;;;9.80;99.90;;;;;;5036688;28;20068;-82
2022/04/12 08:15:15;;;;;;;14.52;9.00;;;9.80;99.90;;;;;;5036216;28;20049;-83
2022/04/12 08:17:41;;;;;;;16.60;9.38;;;9.90;99.90;;;;;;5015614;28;20373;-83
2022/04/12 08:20:13;;;;;;;14.80;9.30;;;10.00;99.90;;;;;;5022865;28;20061;-82
2022/04/12 08:22:40;;;;;;;11.98;8.15;;;10.00;99.90;;;;;;5032684;28;20057;-82
2022/04/12 08:25:06;;;;;;;15.32;9.18;;;10.10;99.90;;;;;;5014639;28;20049;-82
2022/04/12 08:27:32;;;;;;;17.58;8.98;;;10.30;99.90;;;;;;5034379;28;20057;-82
2022/04/12 08:29:58;;;;;;;13.43;8.65;;;10.40;99.90;;;;;;5033870;28;20458;-82
2022/04/12 08:32:23;;;;;;;19.73;9.77;;;10.50;99.90;;;;;;5047092;28;20037;-82
2022/04/12 08:34:49;;;;;;;12.80;8.95;;;10.80;99.90;;;;;;5046482;28;20492;-82
2022/04/12 08:37:15;;;;;;;12.32;9.00;;;10.70;99.90;;;;;;5032953;28;22064;-82
2022/04/12 08:39:41;;;;;;;20.08;9.20;;;10.90;99.90;;;;;;5035183;28;20109;-81
2022/04/12 08:42:07;;;;;;;14.93;9.57;;;10.90;99.90;;;;;;5051418;28;20052;-82
2022/04/12 08:44:36;;;;;;;13.80;9.10;;;11.20;99.90;;;;;;5050335;28;20041;-83
2022/04/12 08:47:04;;;;;;;15.63;9.68;;;11.30;99.90;;;;;;5034681;28;20159;-82
2022/04/12 08:49:30;;;;;;;15.27;9.55;;;11.40;99.90;;;;;;5034455;28;20068;-82
2022/04/12 08:51:56;;;;;;;13.77;8.68;;;11.40;99.90;;;;;;5050531;28;20069;-82
2022/04/12 08:54:25;;;;;;;15.02;9.48;;;11.50;99.90;;;;;;5035494;28;20037;-82
2022/04/12 08:56:52;;;;;;;14.60;9.07;;;11.50;99.90;;;;;;5051544;28;20066;-82
2022/04/12 08:59:19;;;;;;;14.90;9.70;;;11.60;99.90;;;;;;5050859;28;20214;-82
2022/04/12 09:01:46;;;;;;;15.05;9.60;;;11.70;99.90;;;;;;5050906;28;20047;-82
2022/04/12 09:04:13;;;;;;;14.60;9.07;;;11.80;99.90;;;;;;5033629;28;20500;-82
2022/04/12 09:06:53;;;;;;;15.13;10.13;;;11.90;99.90;;;;;;5052586;28;20045;-82
2022/04/12 09:09:21;;;;;;;14.27;8.63;;;11.90;99.90;;;;;;5036274;28;20048;-82
2022/04/12 09:12:10;;;;;;;14.70;8.95;;;12.00;99.90;;;;;;5032343;28;20115;-82
2022/04/12 09:14:48;;;;;;;13.68;9.15;;;12.10;99.90;;;;;;5036670;28;20053;-82
2022/04/12 09:17:34;;;;;;;11.40;7.88;;;12.20;99.90;;;;;;5035808;28;20140;-83
2022/04/12 09:19:59;;;;;;;18.63;9.27;;;12.30;99.90;;;;;;5034477;28;20106;-83
2022/04/12 09:22:27;;;;;;;13.80;9.20;;;12.40;99.90;;;;;;5051273;28;20044;-83
2022/04/12 09:24:58;;;;;;;20.73;9.48;;;12.50;99.90;;;;;;5051532;28;20067;-83
2022/04/12 09:27:26;;;;;;;12.18;9.10;;;12.50;99.90;;;;;;5033515;28;20049;-82
2022/04/12 09:30:02;;;;;;;13.50;8.85;;;12.60;99.90;;;;;;5050672;28;20128;-82
2022/04/12 09:32:38;;;;;;;16.08;9.45;;;12.80;99.90;;;;;;5054522;28;20076;-83
2022/04/12 09:35:06;;;;;;;13.45;8.75;;;12.90;99.90;;;;;;5029860;28;20049;-83
2022/04/12 09:37:37;;;;;;;14.52;8.98;;;13.00;99.90;;;;;;5034026;28;20045;-83
2022/04/12 09:40:16;;;;;;;13.93;8.95;;;13.10;99.90;;;;;;5033399;28;20098;-83
2022/04/12 09:42:52;;;;;;;15.43;9.30;;;13.10;99.90;;;;;;5034901;28;20068;-82
2022/04/12 09:45:19;;;;;;;13.15;9.10;;;13.20;99.90;;;;;;5033107;28;20060;-82
2022/04/12 09:47:47;;;;;;;14.93;9.48;;;13.30;99.90;;;;;;5033201;28;20415;-82
2022/04/12 09:50:19;;;;;;;14.20;9.57;;;13.50;99.90;;;;;;5048993;28;20148;-83
2022/04/12 09:52:55;;;;;;;13.00;9.18;;;13.50;99.90;;;;;;5033997;28;20518;-82
2022/04/12 09:55:46;;;;;;;17.42;9.75;;;13.70;99.90;;;;;;5049955;28;20483;-84
2022/04/12 09:58:16;;;;;;;13.07;8.30;;;13.80;99.90;;;;;;4954501;28;20103;-84
2022/04/12 10:00:47;;;;;;;14.50;8.93;;;13.90;99.90;;;;;;4939454;28;20082;-84
2022/04/12 10:03:14;;;;;;;14.20;9.27;;;13.90;99.90;;;;;;4939262;28;20058;-83
2022/04/12 10:05:44;;;;;;;18.40;9.63;;;14.10;99.90;;;;;;4939419;28;20108;-83
2022/04/12 10:08:13;;;;;;;13.02;9.10;;;14.10;99.90;;;;;;4950920;28;20161;-83
2022/04/12 10:10:45;;;;;;;16.95;9.52;;;14.20;99.90;;;;;;4961590;28;20121;-84
2022/04/12 10:13:14;;;;;;;14.50;9.15;;;14.40;99.90;;;;;;4938610;28;20058;-82
2022/04/12 10:15:41;;;;;;;13.40;9.35;;;14.50;99.90;;;;;;4938930;28;20050;-83
2022/04/12 10:18:07;;;;;;;18.88;9.38;;;14.60;99.90;;;;;;4971590;28;20057;-83
2022/04/12 10:20:34;;;;;;;16.30;9.52;;;14.70;99.90;;;;;;4956348;28;20124;-83
2022/04/12 10:23:00;;;;;;;11.85;8.80;;;15.00;99.90;;;;;;4973240;28;20141;-84
2022/04/12 10:25:27;;;;;;;17.33;9.93;;;15.10;99.90;;;;;;4989768;28;20121;-83
2022/04/12 10:27:57;;;;;;;13.23;9.02;;;15.30;99.90;;;;;;4956138;28;20049;-83
2022/04/12 10:30:30;;;;;;;12.45;9.25;;;15.40;99.90;;;;;;4974002;28;20046;-83
2022/04/12 10:33:08;;;;;;;10.25;8.18;;;15.70;99.90;;;;;;4987248;28;20117;-83
2022/04/12 10:35:51;;;;;;;14.18;9.07;;;15.80;99.90;;;;;;4999352;28;20372;-84
2022/04/12 10:38:22;;;;;;;13.05;8.82;;;16.10;99.90;;;;;;5037048;28;20053;-83
2022/04/12 10:40:50;;;;;;;14.05;9.50;;;16.30;99.90;;;;;;5053007;28;20048;-83
2022/04/12 10:43:33;;;;;;;13.35;9.02;;;16.50;99.90;;;;;;5034697;28;20071;-83
2022/04/12 10:46:03;;;;;;;14.95;9.45;;;16.60;99.90;;;;;;5050305;28;20116;-84
2022/04/12 10:48:34;;;;;;;13.98;9.15;;;16.70;99.90;;;;;;5013778;28;20050;-83
2022/04/12 10:51:03;;;;;;;11.27;9.32;;;16.80;99.90;;;;;;5030978;28;20061;-84
2022/04/12 10:53:38;;;;;;;13.60;8.98;;;16.90;99.90;;;;;;5031032;28;20045;-82
2022/04/12 10:56:09;;;;;;;11.23;9.00;;;17.00;99.90;;;;;;5051582;28;20041;-82
2022/04/12 10:58:35;;;;;;;11.02;8.23;;;17.30;99.90;;;;;;5051281;28;20194;-83
2022/04/12 11:01:02;;;;;;;12.77;8.80;;;17.30;99.90;;;;;;5054200;28;20049;-83
2022/04/12 11:03:40;;;;;;;13.25;9.02;;;17.50;99.90;;;;;;5048693;28;20079;-83
2022/04/12 11:06:26;;;;;;;11.63;8.50;;;17.60;99.90;;;;;;5056372;28;20357;-82
2022/04/12 11:08:54;;;;;;;10.45;8.65;;;17.90;99.90;;;;;;5035975;28;20048;-83
2022/04/12 11:11:28;;;;;;;10.52;8.48;;;18.20;99.90;;;;;;5051760;28;20044;-83
2022/04/12 11:13:55;;;;;;;15.97;8.67;;;18.20;99.90;;;;;;5034667;28;20049;-83
2022/04/12 11:16:27;;;;;;;13.15;8.60;;;18.30;99.90;;;;;;5051021;28;20666;-82
2022/04/12 11:18:58;;;;;;;12.90;8.15;;;18.30;99.50;;;;;;5034023;28;20041;-82
2022/04/12 11:21:25;;;;;;;11.90;8.75;;;18.40;99.90;;;;;;5033879;28;20130;-82
2022/04/12 11:24:00;;;;;;;10.02;8.07;;;18.60;99.90;;;;;;5050176;28;20194;-82
2022/04/12 11:26:47;;;;;;;15.00;8.93;;;18.60;99.40;;;;;;5032343;28;20091;-81
2022/04/12 11:29:14;;;;;;;9.95;8.30;;;18.60;98.70;;;;;;5030611;28;20056;-83
2022/04/12 11:31:45;;;;;;;12.95;8.88;;;18.60;99.20;;;;;;5035958;28;20375;-80
2022/04/12 11:34:12;;;;;;;13.30;7.82;;;18.70;99.90;;;;;;5052209;28;20056;-81
2022/04/12 11:36:39;;;;;;;13.07;8.65;;;18.90;99.90;;;;;;5044632;28;20052;-81
2022/04/12 11:39:07;;;;;;;11.85;8.40;;;18.80;99.90;;;;;;5049091;28;20052;-81
2022/04/12 11:41:32;;;;;;;11.75;8.23;;;18.90;99.90;;;;;;5047709;28;20091;-80
2022/04/12 11:44:05;;;;;;;12.18;8.95;;;19.00;99.90;;;;;;5047749;28;20049;-82
2022/04/12 11:46:33;;;;;;;13.32;8.98;;;19.20;99.90;;;;;;5048490;28;20136;-81
2022/04/12 11:49:09;;;;;;;12.65;8.70;;;19.20;99.20;;;;;;5031944;28;20155;-81
2022/04/12 11:51:48;;;;;;;15.63;8.73;;;19.20;99.40;;;;;;5032956;28;20076;-81
2022/04/12 11:54:25;;;;;;;12.88;9.13;;;19.10;99.10;;;;;;5033192;28;20310;-80
2022/04/12 11:57:11;;;;;;;11.15;9.05;;;19.10;98.70;;;;;;5033882;28;20076;-79
2022/04/12 11:59:56;;;;;;;15.30;8.65;;;19.20;98.60;;;;;;5050590;28;20049;-79
2022/04/12 12:02:29;;;;;;;11.23;8.80;;;19.10;98.60;;;;;;5024923;28;20055;-81
2022/04/12 12:04:57;;;;;;;13.32;8.63;;;19.20;99.30;;;;;;5051835;28;20147;-80
2022/04/12 12:07:24;;;;;;;14.50;8.77;;;19.30;99.10;;;;;;5051894;28;20475;-79
2022/04/12 12:09:58;;;;;;;13.40;8.65;;;19.30;99.90;;;;;;5031822;28;20057;-80
2022/04/12 12:12:37;;;;;;;12.90;8.50;;;19.30;99.70;;;;;;5033719;28;20040;-80
2022/04/12 12:15:25;;;;;;;11.20;8.60;;;19.40;99.90;;;;;;5044687;28;20116;-80
2022/04/12 12:17:56;;;;;;;10.50;8.38;;;19.20;99.50;;;;;;5045500;28;20033;-80
2022/04/12 12:20:24;;;;;;;13.60;8.75;;;19.40;99.90;;;;;;5032078;28;20040;-79
2022/04/12 12:22:52;;;;;;;11.95;8.73;;;19.60;99.80;;;;;;5046249;28;20063;-80
2022/04/12 12:25:18;;;;;;;14.05;8.52;;;19.60;98.40;;;;;;5046636;28;20106;-79
2022/04/12 12:27:54;;;;;;;13.88;8.43;;;19.60;99.90;;;;;;5030402;28;20064;-78
2022/04/12 12:30:27;;;;;;;12.60;8.60;;;19.80;99.50;;;;;;5043504;28;20144;-79
2022/04/12 12:32:56;;;;;;;11.77;8.55;;;20.10;99.90;;;;;;5030859;28;20044;-79
2022/04/12 12:35:29;;;;;;;14.23;8.55;;;20.00;99.50;;;;;;5028635;28;20045;-79
2022/04/12 12:38:03;;;;;;;11.50;8.40;;;20.20;98.30;;;;;;5048667;28;20055;-79
2022/04/12 12:40:30;;;;;;;14.73;8.40;;;20.20;98.70;;;;;;5045543;28;20049;-79
2022/04/12 12:42:56;;;;;;;11.80;8.65;;;20.30;99.00;;;;;;5047628;28;20057;-79
2022/04/12 12:45:23;;;;;;;11.65;8.88;;;20.20;98.90;;;;;;5050060;28;20063;-79
2022/04/12 12:47:54;;;;;;;9.70;8.13;;;20.10;97.40;;;;;;5050206;28;20039;-80
2022/04/12 12:50:22;;;;;;;12.45;8.40;;;20.20;99.20;;;;;;5028204;28;20071;-81
2022/04/12 12:52:49;;;;;;;13.48;8.55;;;20.00;99.90;;;;;;5052424;28;20044;-81
2022/04/12 12:55:22;;;;;;;17.33;8.25;;;20.00;99.80;;;;;;5037402;28;20049;-82
2022/04/12 12:57:53;;;;;;;11.82;9.05;;;20.30;99.40;;;;;;5029114;28;20047;-81